FW4678 Weather Reports


Display with metric or nautical units.
time (UTC)temp
F
wind
direction
speed
MPH
gust
MPH
rain 1hr
in
rain 24hr
in
rain mn
in
humidity
%
barometer
mb
20210804152031 71 327 4.0 8.0 0.00 3.88 1.53 96 1015.1
20210804151601 71 344 3.0 7.0 0.00 3.88 1.53 96 1014.9
20210804151030 71 32 2.0 5.0 0.00 3.88 1.53 96 1015.0
20210804150534 71 37 1.0 5.0 0.00 3.88 1.53 97 1014.9
20210804150133 71 0 1.0 9.0 0.00 3.88 1.53 97 1014.9
20210804145531 71 65 3.0 9.0 0.00 3.88 1.53 96 1014.7
20210804145031 71 57 4.0 9.0 0.00 3.88 1.53 96 1014.7
20210804144706 71 345 3.0 10.0 0.00 3.88 1.53 96 1014.7
20210804144035 71 102 3.0 11.0 0.00 3.88 1.53 96 1014.4
20210804143533 71 69 3.0 11.0 0.00 3.88 1.53 96 1014.3
20210804143114 71 59 3.0 11.0 0.00 3.88 1.53 96 1014.3
20210804142532 71 329 3.0 11.0 0.00 3.88 1.53 96 1014.2
20210804142037 71 77 3.0 12.0 0.00 3.88 1.53 96 1014.1
20210804141654 71 69 3.0 12.0 0.00 3.88 1.53 96 1014.0
20210804141032 71 53 2.0 9.0 0.00 3.88 1.53 97 1013.9
20210804140531 71 18 3.0 8.0 0.01 3.88 1.53 96 1013.9
20210804140102 71 102 3.0 8.0 0.01 3.88 1.53 97 1013.8
20210804135530 71 63 3.0 11.0 0.01 3.88 1.53 97 1013.8
20210804135028 71 93 4.0 11.0 0.01 3.88 1.53 96 1013.9
20210804134618 71 16 3.0 7.0 0.01 3.88 1.53 97 1013.9
20210804134030 71 24 3.0 7.0 0.01 3.88 1.53 97 1013.8
20210804133532 71 100 1.0 7.0 0.02 3.88 1.53 97 1014.1
20210804133056 71 26 3.0 7.0 0.02 3.88 1.53 97 1014.0
20210804132530 71 104 3.0 9.0 0.03 3.88 1.53 97 1013.9
20210804132054 71 42 3.0 9.0 0.04 3.88 1.53 97 1013.8
20210804131624 71 325 3.0 7.0 0.06 3.88 1.53 97 1013.9
20210804131031 71 28 2.0 7.0 0.07 3.88 1.53 97 1013.9
20210804130532 71 52 2.0 8.0 0.08 3.87 1.52 97 1013.9
20210804130048 71 17 2.0 8.0 0.10 3.87 1.52 97 1014.0
20210804125539 71 350 1.0 7.0 0.13 3.87 1.52 97 1014.0
20210804125031 71 329 2.0 8.0 0.15 3.87 1.52 97 1013.8
20210804124601 71 344 1.0 8.0 0.17 3.87 1.52 97 1013.6
20210804124035 71 13 2.0 11.0 0.19 3.87 1.52 97 1013.6
20210804123536 71 194 3.0 11.0 0.20 3.86 1.51 96 1013.6
20210804123138 71 34 2.0 7.0 0.22 3.86 1.51 97 1013.6
20210804122538 71 50 2.0 7.0 0.23 3.85 1.50 96 1013.5
20210804122045 71 306 2.0 5.0 0.24 3.84 1.49 96 1013.5
20210804121635 72 321 1.0 5.0 0.24 3.82 1.47 96 1013.6
20210804121036 72 71 3.0 6.0 0.24 3.80 1.45 96 1013.6
20210804120531 72 315 3.0 6.0 0.26 3.79 1.44 96 1013.4
20210804120112 73 57 0.0 8.0 0.26 3.77 1.42 97 1013.3
20210804115538 73 14 1.0 8.0 0.25 3.74 1.39 97 1013.3
20210804115033 73 37 3.0 5.0 0.26 3.72 1.37 97 1013.2
20210804114611 73 336 1.0 2.0 0.34 3.70 1.35 97 1013.3
20210804114038 73 338 1.0 1.0 0.35 3.68 1.33 97 1013.2
20210804113537 73 24 0.0 2.0 0.36 3.66 1.31 97 1013.3
20210804113041 73 19 1.0 2.0 0.36 3.64 1.29 97 1013.1
20210804112531 73 326 1.0 2.0 0.37 3.62 1.27 97 1013.0
20210804112035 73 309 1.0 2.0 0.38 3.60 1.25 97 1013.1
20210804111657 73 0 0.0 3.0 0.38 3.58 1.23 97 1012.9
20210804111038 73 86 2.0 3.0 0.38 3.56 1.21 97 1012.9
20210804110534 73 0 0.0 2.0 0.37 3.53 1.17 97 1012.9
20210804110110 73 101 0.0 4.0 0.37 3.51 1.16 97 1013.0
20210804105531 73 83 2.0 4.0 0.37 3.49 1.14 97 1013.1
20210804105029 73 61 1.0 2.0 0.35 3.45 1.10 97 1012.9
20210804104618 73 37 0.0 4.0 0.25 3.35 1.00 97 1013.0
20210804104029 73 71 1.0 4.0 0.23 3.32 0.97 97 1013.0
20210804103536 73 78 1.0 2.0 0.21 3.30 0.95 97 1013.1
20210804103053 73 0 1.0 2.0 0.19 3.27 0.92 97 1013.2
20210804102529 73 89 0.0 2.0 0.17 3.24 0.89 97 1013.1
20210804102030 73 92 0.0 2.0 0.16 3.22 0.87 97 1013.1
20210804101556 73 103 0.0 2.0 0.14 3.20 0.85 97 1013.1
20210804101106 73 148 1.0 2.0 0.13 3.18 0.83 97 1013.2
20210804100534 73 105 0.0 3.0 0.11 3.16 0.81 97 1012.9
20210804100131 73 79 1.0 3.0 0.09 3.14 0.79 97 1012.7
20210804095536 73 92 0.0 1.0 0.07 3.11 0.76 97 1012.7
20210804095036 72 0 0.0 1.0 0.06 3.10 0.75 97 1012.8
20210804094554 73 0 0.0 1.0 0.06 3.10 0.75 97 1012.7
20210804094028 73 85 1.0 1.0 0.05 3.09 0.74 97 1012.8
20210804093530 72 103 0.0 2.0 0.04 3.08 0.73 97 1012.8
20210804093116 72 95 1.0 2.0 0.03 3.07 0.72 97 1012.8
20210804092528 72 109 0.0 3.0 0.04 3.07 0.72 97 1012.9
20210804092029 72 115 1.0 3.0 0.04 3.06 0.71 97 1012.8
20210804091557 72 105 1.0 2.0 0.05 3.06 0.71 97 1013.0
20210804091042 72 113 1.0 2.0 0.04 3.05 0.70 97 1013.0
20210804090530 72 107 1.0 2.0 0.05 3.05 0.70 97 1012.7
20210804090122 72 102 1.0 2.0 0.06 3.05 0.70 97 1012.7
20210804085531 72 106 1.0 3.0 0.06 3.04 0.69 97 1012.6
20210804085030 72 106 2.0 3.0 0.07 3.04 0.69 97 1012.6
20210804084646 72 120 1.0 3.0 0.10 3.04 0.69 97 1012.5
20210804084029 72 96 1.0 3.0 0.11 3.04 0.69 97 1012.7
20210804083540 72 114 2.0 6.0 0.14 3.04 0.69 97 1012.7
20210804083114 72 123 2.0 6.0 0.15 3.04 0.69 97 1012.6
20210804082530 72 113 1.0 3.0 0.15 3.03 0.68 97 1012.7
20210804082029 72 105 1.0 2.0 0.14 3.02 0.67 97 1012.7
20210804081613 72 103 1.0 2.0 0.14 3.01 0.66 97 1012.8
20210804081029 73 89 1.0 2.0 0.13 3.00 0.65 97 1012.8
20210804080534 72 106 1.0 3.0 0.13 3.00 0.65 97 1012.9
20210804080101 73 103 1.0 3.0 0.13 2.99 0.64 97 1013.0
20210804075529 73 109 0.0 2.0 0.12 2.98 0.63 97 1012.9
20210804075029 72 118 1.0 2.0 0.10 2.96 0.61 97 1013.1
20210804074556 73 127 0.0 1.0 0.09 2.94 0.58 97 1013.2
20210804074055 73 0 0.0 1.0 0.08 2.92 0.57 97 1013.2
20210804073529 73 96 0.0 1.0 0.07 2.90 0.55 97 1013.2
20210804073047 73 0 0.0 1.0 0.08 2.89 0.54 97 1013.4
20210804072531 73 0 0.0 1.0 0.09 2.88 0.52 97 1013.3
20210804072028 72 0 0.0 1.0 0.10 2.88 0.52 97 1013.3
20210804071617 73 62 0.0 1.0 0.10 2.87 0.52 97 1013.4
20210804071031 73 93 0.0 1.0 0.11 2.87 0.52 97 1013.5
20210804070529 72 103 0.0 2.0 0.13 2.87 0.52 97 1013.7
20210804070126 72 90 0.0 2.0 0.13 2.86 0.51 97 1013.6
20210804065527 72 0 0.0 2.0 0.13 2.86 0.51 97 1013.7
20210804065028 72 107 1.0 2.0 0.14 2.86 0.51 97 1013.6
20210804064553 72 0 0.0 2.0 0.13 2.84 0.49 97 1013.7
20210804064034 72 85 1.0 4.0 0.13 2.83 0.48 97 1013.7
20210804063529 72 83 1.0 4.0 0.14 2.83 0.48 97 1013.8
20210804063110 72 91 2.0 4.0 0.14 2.81 0.46 96 1013.8
20210804062530 72 101 3.0 4.0 0.13 2.79 0.44 96 1013.9
20210804062035 72 89 2.0 3.0 0.13 2.78 0.43 96 1014.0
20210804061550 72 109 1.0 2.0 0.14 2.77 0.42 96 1014.0
20210804061028 72 112 0.0 3.0 0.14 2.76 0.41 96 1014.0
20210804060532 72 102 1.0 3.0 0.12 2.74 0.39 96 1014.0
20210804060106 72 105 0.0 3.0 0.11 2.73 0.38 96 1014.1
20210804055528 72 0 0.0 4.0 0.12 2.73 0.38 96 1014.2
20210804055030 72 105 3.0 6.0 0.12 2.72 0.37 96 1014.1
20210804054559 72 84 3.0 6.0 0.11 2.71 0.36 96 1014.1
20210804054030 72 101 1.0 4.0 0.11 2.70 0.35 96 1014.1
20210804053535 72 65 1.0 5.0 0.12 2.69 0.34 96 1014.1
20210804053119 72 112 2.0 5.0 0.16 2.67 0.32 96 1014.1
20210804052529 72 101 1.0 7.0 0.18 2.66 0.31 96 1014.3
20210804052040 72 0 2.0 13.0 0.17 2.65 0.30 96 1014.0
20210804051623 72 128 5.0 13.0 0.16 2.63 0.28 96 1014.1
20210804051033 72 84 4.0 12.0 0.16 2.62 0.27 96 1014.2
20210804050536 72 78 5.0 12.0 0.21 2.62 0.27 96 1014.4
20210804050139 72 73 6.0 14.0 0.27 2.62 0.27 96 1014.5
20210804045533 72 93 8.0 14.0 0.28 2.61 0.26 96 1014.3
20210804045030 72 103 3.0 9.0 0.28 2.60 0.25 96 1014.6
20210804044610 71 62 3.0 9.0 0.32 2.60 0.25 96 1014.9
20210804044033 71 305 5.0 9.0 0.31 2.59 0.24 96 1014.8
20210804043531 72 315 3.0 9.0 0.30 2.57 0.22 96 1015.1
20210804043051 72 40 4.0 9.0 0.25 2.51 0.16 96 1015.1
20210804042533 72 77 4.0 11.0 0.22 2.48 0.13 96 1015.2
20210804042031 71 107 5.0 11.0 0.23 2.48 0.13 96 1015.1
20210804041639 71 111 6.0 12.0 0.22 2.47 0.12 96 1015.1
20210804041030 71 102 7.0 12.0 0.21 2.46 0.11 96 1015.0
20210804040536 71 79 6.0 15.0 0.18 2.41 0.06 96 1015.3
20210804040034 71 115 5.0 15.0 0.12 2.34 0.00 96 1015.4
20210804035530 71 89 7.0 12.0 0.10 2.33 2.33 96 1015.6
20210804035033 71 91 5.0 12.0 0.09 2.32 2.32 96 1015.4
20210804034608 71 63 4.0 12.0 0.05 2.28 2.28 96 1015.4
20210804034033 70 55 6.0 11.0 0.05 2.27 2.27 96 1015.4
20210804033530 70 32 4.0 13.0 0.05 2.27 2.27 96 1015.4
20210804033134 70 90 5.0 13.0 0.04 2.26 2.26 95 1015.5
20210804032541 70 94 5.0 13.0 0.03 2.25 2.25 95 1015.6
20210804032030 70 91 5.0 15.0 0.03 2.25 2.25 95 1015.5
20210804031642 70 105 5.0 15.0 0.03 2.25 2.25 95 1015.6
20210804031030 70 103 5.0 16.0 0.02 2.24 2.24 95 1015.5
20210804030538 70 109 7.0 16.0 0.01 2.23 2.23 95 1015.8
20210804030109 69 109 8.0 14.0 0.01 2.23 2.23 95 1016.0
20210804025545 69 69 6.0 13.0 0.01 2.23 2.23 95 1015.9
20210804025030 69 130 7.0 13.0 0.01 2.23 2.23 94 1016.0
20210804024620 69 117 7.0 20.0 0.00 2.22 2.22 94 1016.0
20210804024028 69 119 8.0 20.0 0.00 2.22 2.22 94 1016.0
20210804023533 69 117 9.0 16.0 0.00 2.22 2.22 94 1016.2
20210804023118 69 81 8.0 16.0 0.01 2.22 2.22 94 1016.1
20210804022536 69 100 6.0 15.0 0.01 2.22 2.22 94 1016.1
20210804022029 69 50 9.0 22.0 0.01 2.22 2.22 94 1016.2
20210804021629 70 130 7.0 22.0 0.02 2.22 2.22 94 1016.3
20210804021029 70 113 9.0 18.0 0.04 2.22 2.22 94 1016.4
20210804020600 70 92 8.0 13.0 0.07 2.22 2.22 95 1016.4
20210804020052 70 119 7.0 13.0 0.09 2.22 2.22 95 1016.3
20210804015528 70 72 8.0 18.0 0.11 2.22 2.22 95 1016.4
20210804015029 69 117 9.0 19.0 0.12 2.22 2.22 95 1016.4
20210804014622 69 117 9.0 19.0 0.15 2.22 2.22 95 1016.3
20210804014034 69 74 9.0 17.0 0.17 2.22 2.22 95 1016.3
20210804013541 69 87 8.0 20.0 0.17 2.22 2.22 95 1016.3
20210804013135 69 61 10.0 20.0 0.17 2.21 2.21 95 1016.4
20210804012528 69 84 11.0 20.0 0.20 2.21 2.21 95 1016.4
20210804012051 70 119 10.0 17.0 0.21 2.21 2.21 95 1016.0
20210804011707 70 68 7.0 18.0 0.24 2.20 2.20 95 1016.2
20210804011038 70 83 10.0 18.0 0.31 2.17 2.17 95 1016.2
20210804010530 70 75 6.0 15.0 0.34 2.15 2.15 95 1016.4
20210804010202 70 92 7.0 16.0 0.37 2.13 2.13 95 1016.2
20210804005530 70 88 4.0 16.0 0.45 2.10 2.10 95 1016.3
20210804005035 70 64 6.0 12.0 0.52 2.08 2.08 95 1016.3
20210804004547 70 96 8.0 14.0 0.55 2.06 2.06 95 1016.4
20210804004109 71 86 5.0 14.0 0.61 2.05 2.05 95 1016.2
20210804003543 71 17 7.0 21.0 0.65 2.04 2.04 95 1015.8
20210804003127 70 71 8.0 21.0 0.69 2.04 2.04 95 1015.8
20210804002538 70 96 12.0 19.0 0.70 2.01 2.01 95 1015.6
20210804002036 71 132 7.0 19.0 0.71 1.99 1.99 95 1015.5
20210804001725 71 100 4.0 9.0 0.70 1.95 1.95 96 1015.7
20210804001029 71 125 3.0 9.0 0.63 1.86 1.86 96 1015.6
20210804000527 71 102 1.0 4.0 0.58 1.81 1.81 96 1015.5
20210804000126 71 57 3.0 8.0 0.54 1.75 1.75 95 1015.5
20210803235530 71 49 2.0 11.0 0.44 1.65 1.65 95 1015.7
20210803235027 71 79 5.0 11.0 0.37 1.56 1.56 95 1015.5
20210803234616 71 126 3.0 14.0 0.32 1.50 1.50 95 1015.4
20210803234108 71 130 6.0 14.0 0.27 1.44 1.44 95 1015.4
20210803233536 71 101 5.0 12.0 0.21 1.38 1.38 95 1015.4
20210803233200 71 70 5.0 14.0 0.17 1.34 1.34 95 1015.2
20210803232532 71 98 7.0 17.0 0.14 1.31 1.31 95 1015.3
20210803232030 71 106 6.0 18.0 0.11 1.28 1.28 95 1015.3
20210803231626 71 54 8.0 18.0 0.08 1.25 1.25 95 1015.1
20210803231030 71 124 7.0 15.0 0.06 1.23 1.23 95 1015.2
20210803230536 71 109 6.0 15.0 0.05 1.22 1.22 94 1015.3
20210803230120 71 130 7.0 15.0 0.04 1.21 1.21 94 1015.3
20210803225529 71 92 7.0 15.0 0.03 1.20 1.20 94 1015.4
20210803225030 71 121 4.0 18.0 0.02 1.19 1.19 94 1015.3
20210803224611 71 116 9.0 18.0 0.01 1.17 1.17 94 1015.3
20210803224055 71 111 6.0 15.0 0.00 1.16 1.16 94 1015.4
20210803223544 71 119 8.0 15.0 0.00 1.16 1.16 94 1015.3
20210803223108 72 88 7.0 17.0 0.00 1.16 1.16 94 1015.5
20210803222531 72 60 9.0 17.0 0.00 1.16 1.16 94 1015.5
20210803222033 72 109 6.0 16.0 0.01 1.16 1.16 94 1015.6
20210803221704 72 56 8.0 19.0 0.01 1.16 1.16 94 1015.6
20210803221038 72 92 9.0 19.0 0.01 1.16 1.16 95 1015.6
20210803220533 73 69 4.0 15.0 0.02 1.16 1.16 95 1015.6
20210803220152 73 95 6.0 15.0 0.02 1.16 1.16 95 1015.5
20210803215527 73 103 6.0 12.0 0.02 1.19 1.16 95 1015.5
20210803215029 73 59 4.0 12.0 0.02 1.19 1.16 95 1015.5
20210803214545 73 55 4.0 8.0 0.02 1.19 1.16 95 1015.6
20210803214029 73 96 3.0 9.0 0.02 1.19 1.16 95 1015.7
20210803213541 73 102 4.0 12.0 0.02 1.19 1.16 95 1015.7
20210803213048 73 88 2.0 12.0 0.02 1.19 1.16 95 1015.8
20210803212527 73 85 3.0 11.0 0.02 1.19 1.16 95 1015.9
20210803212043 73 83 5.0 12.0 0.02 1.17 1.16 95 1016.1
20210803211723 73 63 5.0 12.0 0.02 1.17 1.16 95 1016.0
20210803211029 73 49 4.0 11.0 0.03 1.17 1.16 95 1016.0
20210803210529 73 71 3.0 8.0 0.03 1.16 1.15 95 1016.2
20210803210110 73 101 3.0 12.0 0.04 1.16 1.15 95 1016.0
20210803205538 73 121 6.0 12.0 0.06 1.21 1.15 95 1016.1
20210803205035 73 78 3.0 12.0 0.07 1.21 1.15 95 1016.0
20210803204611 73 43 5.0 14.0 0.09 1.21 1.15 95 1016.0
20210803204033 73 46 9.0 14.0 0.16 1.21 1.15 95 1015.9
20210803203534 73 90 7.0 13.0 0.19 1.21 1.15 95 1016.1
20210803203210 73 112 6.0 13.0 0.21 1.21 1.15 95 1016.1
20210803202535 73 91 7.0 13.0 0.23 1.21 1.15 95 1016.0
20210803202028 73 86 7.0 15.0 0.24 1.20 1.14 95 1016.0
20210803201637 73 88 8.0 15.0 0.29 1.20 1.14 95 1016.0
20210803201109 73 130 6.0 12.0 0.33 1.19 1.13 95 1016.2
20210803200531 73 100 5.0 10.0 0.35 1.17 1.12 95 1016.0
20210803200119 73 101 5.0 14.0 0.42 1.16 1.11 95 1016.1
20210803195529 73 51 3.0 14.0 0.46 1.15 1.09 96 1016.0
20210803195028 73 98 5.0 12.0 0.46 1.14 1.08 95 1016.1
20210803194600 73 65 6.0 12.0 0.46 1.12 1.05 95 1015.9
20210803194028 73 123 5.0 9.0 0.41 1.04 0.99 95 1016.2
20210803193531 73 145 2.0 7.0 0.40 1.02 0.96 95 1016.3
20210803193113 73 78 4.0 8.0 0.39 0.99 0.93 95 1016.0
20210803192544 73 84 4.0 13.0 0.39 0.98 0.92 95 1016.0
20210803192030 73 116 7.0 13.0 0.37 0.96 0.90 95 1016.0
20210803191612 74 118 7.0 11.0 0.32 0.89 0.83 95 1016.1
20210803191031 74 82 3.0 9.0 0.29 0.86 0.80 95 1016.1
20210803190605 74 72 6.0 9.0 0.30 0.82 0.76 95 1016.3
20210803190153 74 135 3.0 9.0 0.24 0.74 0.68 95 1016.6
20210803185545 74 103 3.0 9.0 0.19 1.74 0.63 95 1016.5
20210803185034 74 103 4.0 10.0 0.18 1.73 0.62 95 1016.4
20210803184736 74 95 5.0 11.0 0.18 1.71 0.60 95 1016.3
20210803184045 75 84 4.0 11.0 0.28 1.68 0.57 95 1016.2
20210803183554 75 145 1.0 4.0 0.40 1.66 0.55 95 1016.2
20210803183134 75 121 2.0 4.0 0.50 1.65 0.54 95 1016.2
20210803182529 75 119 1.0 3.0 0.49 1.64 0.52 95 1016.3
20210803182030 75 82 0.0 8.0 0.48 1.63 0.52 95 1016.2
20210803181644 75 126 2.0 8.0 0.48 1.62 0.51 95 1016.2
20210803181048 75 106 3.0 7.0 0.47 1.61 0.50 95 1016.3
20210803180532 75 167 2.0 5.0 0.44 1.56 0.45 95 1016.4
20210803180207 75 101 2.0 8.0 0.44 1.55 0.44 95 1016.4
20210803175537 75 91 4.0 8.0 0.44 1.55 0.44 94 1016.3
20210803175031 75 84 3.0 9.0 0.44 1.55 0.44 94 1016.3
20210803174651 75 95 3.0 13.0 0.41 1.52 0.41 93 1016.4
20210803174100 75 144 5.0 15.0 0.27 1.38 0.27 92 1016.3
20210803173531 76 117 8.0 15.0 0.13 1.24 0.13 91 1016.3
20210803173231 77 218 1.0 1.0 0.04 1.15 0.04 91 1016.2
20210803172531 77 0 0.0 1.0 0.04 1.15 0.04 90 1016.2
20210803172037 77 330 0.0 5.0 0.04 1.15 0.04 90 1016.1
20210803171613 77 67 1.0 5.0 0.03 1.14 0.03 89 1016.2
20210803171029 78 98 1.0 10.0 0.02 1.13 0.02 89 1016.2
20210803170530 78 93 1.0 10.0 0.01 1.12 0.01 88 1016.2
20210803170144 78 124 2.0 14.0 0.00 1.11 0.00 87 1016.1
20210803165539 78 108 6.0 14.0 0.00 1.11 0.00 86 1016.0
20210803165032 78 100 5.0 12.0 0.00 1.11 0.00 86 1015.9
20210803164630 78 110 4.0 11.0 0.00 1.11 0.00 87 1015.8
20210803164040 78 76 3.0 12.0 0.00 1.11 0.00 86 1016.0
20210803163535 78 100 7.0 12.0 0.00 1.11 0.00 86 1016.1
20210803163125 78 103 2.0 8.0 0.00 1.11 0.00 86 1016.2
20210803162531 78 84 4.0 8.0 0.00 1.11 0.00 86 1016.3
20210803162029 78 152 5.0 12.0 0.00 1.11 0.00 86 1016.4
20210803161626 78 63 7.0 12.0 0.00 1.11 0.00 86 1016.4
20210803161055 78 98 5.0 12.0 0.00 1.11 0.00 85 1016.4
20210803160624 79 63 7.0 10.0 0.00 1.11 0.00 84 1016.5
20210803160412 79 349 5.0 9.0 0.00 1.11 0.00 84 1016.6
20210803155535 79 117 3.0 9.0 0.00 1.11 0.00 86 1016.6
20210803155035 79 107 2.0 8.0 0.00 1.11 0.00 86 1016.6
20210803154558 78 110 4.0 9.0 0.00 1.11 0.00 86 1016.7
20210803154029 79 109 2.0 9.0 0.00 1.11 0.00 86 1016.8
20210803153530 79 32 3.0 8.0 0.00 1.11 0.00 86 1016.8
20210803153242 79 328 4.0 10.0 0.00 1.11 0.00 86 1016.6
20210803152529 79 71 3.0 10.0 0.00 1.11 0.00 86 1016.6